CheckWX is a tool to help pilots better visualize weather data.  It is not intended as a substitute for an official pre-flight weather briefing.

07:58:04 UTC

CYKF TAF
Waterloo Airport
Kitchener, Canada
TAF CYKF 260742Z 2608/2620 17010KT 5SM -SHSN BKN008 OVC015 TEMPO 2608/2615 P6SM NSW SCT008 OVC015 BECMG 2612/2614 25012G22KT FM261500 25012G22KT 4SM -SHSNRA OVC015 RMK FCST BASED ON AUTO OBS. NXT FCST BY 261400Z

Jan-26@
08:00 UTC

Jan-26 @ 08:00 UTC

Jan-26@
12:00 UTC

Jan-26 @ 12:00 UTC

TAF CYKF 260742Z 2608/2620 17010KT 5SM -SHSN BKN008 OVC015
Wind
  • 170° at 10 KTS
Conditions
Light Snow
Cloud Levels
  • Broken at 800' AGL
  • Overcast at 1,500' AGL

Jan-26@
08:00 UTC

Jan-26 @ 08:00 UTC

Jan-26@
15:00 UTC

Jan-26 @ 15:00 UTC

TEMPO 2608/2615 P6SM NSW SCT008 OVC015

Temporary

Temporary Changes expected for less than half the time period

Conditions
No significant weather
Cloud Levels
  • Scattered at 800' AGL
  • Overcast at 1,500' AGL

Jan-26@
12:00 UTC

Jan-26 @ 12:00 UTC

Jan-26@
15:00 UTC

Jan-26 @ 15:00 UTC

BECMG 2612/2614 25012G22KT

Becoming

Becoming Conditions expected by Sun, Jan 26, 2020 @ 14:00 UTC

Wind
  • 250° at 12 KTS
  • {Gusting to 22 KTS
Conditions
Light Snow
Cloud Levels
  • Broken at 800' AGL
  • Overcast at 1,500' AGL

Jan-26@
15:00 UTC

Jan-26 @ 15:00 UTC

Jan-26@
20:00 UTC

Jan-26 @ 20:00 UTC

FM261500 25012G22KT 4SM -SHSNRA OVC015 RMK FCST BASED ON AUTO OBS. NXT FCST BY 261400Z

From

From Standard forecast or significant change

Wind
  • 250° at 12 KTS
  • {Gusting to 22 KTS
Conditions
Light Snow, Light Rain
Cloud Levels
  • Overcast at 1,500' AGL